createdAt,value
2018-12-11T00:01:58.975Z,98920.19
2018-12-11T00:04:27.916Z,98925.04
2018-12-11T00:06:56.738Z,98928.88
2018-12-11T00:09:25.917Z,98929.33
2018-12-11T00:11:54.903Z,98923.73
2018-12-11T00:14:24.125Z,98929.28
2018-12-11T00:16:53.097Z,98925.53
2018-12-11T00:19:22.498Z,98942.91
2018-12-11T00:21:51.328Z,98937.23
2018-12-11T00:24:20.305Z,98948.58
2018-12-11T00:26:49.253Z,98951.06
2018-12-11T00:29:18.152Z,98944.09
2018-12-11T00:31:47.111Z,98948.00
2018-12-11T00:34:16.116Z,98952.62
2018-12-11T00:36:45.487Z,98933.20
2018-12-11T00:39:14.406Z,98953.67
2018-12-11T00:41:43.320Z,98956.94
2018-12-11T00:44:12.165Z,98959.75
2018-12-11T00:46:41.101Z,98980.30
2018-12-11T00:49:10.293Z,98965.83
2018-12-11T00:51:39.199Z,98966.40
2018-12-11T00:54:08.052Z,98970.64
2018-12-11T00:56:36.964Z,98968.44
2018-12-11T00:59:05.978Z,98968.36
2018-12-11T01:01:35.149Z,98962.03
2018-12-11T01:04:03.961Z,98967.17
2018-12-11T01:06:32.775Z,98977.73
2018-12-11T01:09:01.672Z,98966.40
2018-12-11T01:11:30.727Z,98961.17
2018-12-11T01:13:59.648Z,98964.56
2018-12-11T01:16:28.573Z,98969.41
2018-12-11T01:18:57.501Z,98969.78
2018-12-11T01:21:26.360Z,98977.73
2018-12-11T01:23:55.621Z,98969.91
2018-12-11T01:26:24.571Z,98984.08
2018-12-11T01:28:53.460Z,98980.21
2018-12-11T01:31:22.300Z,98983.64
2018-12-11T01:33:51.195Z,98989.56
2018-12-11T01:36:20.065Z,98983.34
2018-12-11T01:38:48.977Z,98999.94
2018-12-11T01:41:17.899Z,98991.97
2018-12-11T01:43:46.872Z,98983.73
2018-12-11T01:46:15.857Z,99000.70
2018-12-11T01:48:44.794Z,98992.02
2018-12-11T01:51:13.714Z,98988.06
2018-12-11T01:53:42.651Z,98988.70
2018-12-11T01:56:11.673Z,98989.52
2018-12-11T01:58:40.561Z,98990.38
2018-12-11T02:01:09.366Z,98989.22
2018-12-11T02:03:38.245Z,99003.05
2018-12-11T02:06:07.034Z,99001.41
2018-12-11T02:08:36.012Z,98999.14
2018-12-11T02:11:04.840Z,99004.06
2018-12-11T02:13:33.758Z,99005.78
2018-12-11T02:16:02.682Z,99006.22
2018-12-11T02:18:31.617Z,99004.40
2018-12-11T02:21:00.556Z,99008.46
2018-12-11T02:23:29.371Z,99007.48
2018-12-11T02:25:58.209Z,99010.09
2018-12-11T02:28:27.121Z,99009.24
2018-12-11T02:30:56.022Z,99005.37
2018-12-11T02:33:27.128Z,99001.94
2018-12-11T02:35:56.127Z,99001.98
2018-12-11T02:38:25.191Z,99001.61
2018-12-11T02:40:54.106Z,99003.24
2018-12-11T02:43:23.128Z,99005.37
2018-12-11T02:45:52.048Z,98994.56
2018-12-11T02:48:21.043Z,98992.06
2018-12-11T02:50:49.989Z,98995.58
2018-12-11T02:53:19.097Z,98990.53
2018-12-11T02:55:47.998Z,98996.98
2018-12-11T02:58:16.927Z,98983.93
2018-12-11T03:00:45.850Z,98984.16
2018-12-11T03:03:14.865Z,98989.48
2018-12-11T03:05:43.785Z,98996.13
2018-12-11T03:08:12.807Z,98992.28
2018-12-11T03:10:41.818Z,99004.88
2018-12-11T03:13:10.740Z,99000.63
2018-12-11T03:15:39.637Z,99000.11
2018-12-11T03:18:08.546Z,99011.52
2018-12-11T03:20:37.456Z,98993.52
2018-12-11T03:23:06.373Z,98996.20
2018-12-11T03:25:35.283Z,99008.64
2018-12-11T03:28:04.204Z,99001.34
2018-12-11T03:30:33.007Z,99012.97
2018-12-11T03:33:01.994Z,98997.76
2018-12-11T03:35:31.383Z,99010.87
2018-12-11T03:38:00.297Z,99014.39
2018-12-11T03:40:29.248Z,99000.44
2018-12-11T03:42:58.204Z,99006.36
2018-12-11T03:45:27.013Z,99026.53
2018-12-11T03:47:55.911Z,99019.16
2018-12-11T03:50:24.838Z,99014.12
2018-12-11T03:52:53.826Z,99003.69
2018-12-11T03:55:22.826Z,98990.53
2018-12-11T03:57:51.839Z,99008.50
2018-12-11T04:00:20.756Z,99011.56
2018-12-11T04:02:49.766Z,99004.85
2018-12-11T04:05:18.689Z,99018.61
2018-12-11T04:07:47.584Z,99010.45
2018-12-11T04:10:17.020Z,99016.59
2018-12-11T04:12:46.280Z,99023.48
2018-12-11T04:15:15.199Z,99022.97
2018-12-11T04:17:44.186Z,99021.11
2018-12-11T04:20:13.393Z,99021.33
2018-12-11T04:22:42.388Z,99024.61
2018-12-11T04:25:11.429Z,99035.45
2018-12-11T04:27:40.768Z,99027.74
2018-12-11T04:30:09.824Z,99038.52
2018-12-11T04:32:38.841Z,99036.16
2018-12-11T04:35:07.917Z,99031.84
2018-12-11T04:37:36.820Z,99049.54
2018-12-11T04:40:06.142Z,99045.22
2018-12-11T04:42:35.215Z,99046.41
2018-12-11T04:45:04.461Z,99041.19
2018-12-11T04:47:33.341Z,99045.29
2018-12-11T04:50:02.314Z,99048.39
2018-12-11T04:52:31.229Z,99049.88
2018-12-11T04:55:00.174Z,99053.41
2018-12-11T04:57:29.361Z,99054.71
2018-12-11T04:59:58.300Z,99055.95
2018-12-11T05:02:27.108Z,99058.73
2018-12-11T05:04:56.493Z,99064.22
2018-12-11T05:07:25.633Z,99053.09
2018-12-11T05:09:54.540Z,99071.20
2018-12-11T05:12:23.330Z,99065.77
2018-12-11T05:14:52.274Z,99075.27
2018-12-11T05:17:21.170Z,99075.23
2018-12-11T05:19:50.129Z,99068.27
2018-12-11T05:22:19.044Z,99088.31
2018-12-11T05:24:47.961Z,99089.47
2018-12-11T05:27:16.757Z,99092.37
2018-12-11T05:29:45.787Z,99098.27
2018-12-11T05:32:14.715Z,99097.06
2018-12-11T05:34:43.633Z,99101.36
2018-12-11T05:37:12.771Z,99099.89
2018-12-11T05:39:41.737Z,99111.11
2018-12-11T05:42:10.737Z,99116.05
2018-12-11T05:44:39.566Z,99116.91
2018-12-11T05:47:08.533Z,99128.75
2018-12-11T05:49:37.326Z,99120.41
2018-12-11T05:52:06.157Z,99132.55
2018-12-11T05:54:35.384Z,99137.53
2018-12-11T05:57:04.306Z,99138.28
2018-12-11T05:59:33.190Z,99143.09
2018-12-11T06:02:02.137Z,99163.16
2018-12-11T06:04:31.133Z,99153.96
2018-12-11T06:07:00.080Z,99161.41
2018-12-11T06:09:29.036Z,99156.53
2018-12-11T06:11:57.860Z,99170.02
2018-12-11T06:14:26.764Z,99177.05
2018-12-11T06:16:55.597Z,99176.09
2018-12-11T06:19:24.545Z,99183.91
2018-12-11T06:21:53.558Z,99189.16
2018-12-11T06:24:22.670Z,99191.16
2018-12-11T06:26:52.077Z,99197.67
2018-12-11T06:29:21.100Z,99205.12
2018-12-11T06:31:50.060Z,99200.42
2018-12-11T06:34:19.133Z,99209.37
2018-12-11T06:36:47.960Z,99216.34
2018-12-11T06:39:16.817Z,99230.58
2018-12-11T06:41:45.760Z,99224.16
2018-12-11T06:44:14.604Z,99230.84
2018-12-11T06:46:43.416Z,99231.23
2018-12-11T06:49:12.305Z,99232.05
2018-12-11T06:51:41.136Z,99235.20
2018-12-11T06:54:09.956Z,99235.72
2018-12-11T06:56:39.299Z,99238.70
2018-12-11T06:59:08.129Z,99243.92
2018-12-11T07:01:37.065Z,99243.82
2018-12-11T07:04:05.947Z,99244.43
2018-12-11T07:06:34.765Z,99243.73
2018-12-11T07:09:05.561Z,99250.91
2018-12-11T07:11:34.519Z,99250.91
2018-12-11T07:14:03.405Z,99255.52
2018-12-11T07:16:32.312Z,99254.94
2018-12-11T07:19:01.246Z,99265.27
2018-12-11T07:21:30.369Z,99265.22
2018-12-11T07:23:59.164Z,99257.30
2018-12-11T07:26:28.108Z,99260.17
2018-12-11T07:28:56.955Z,99267.90
2018-12-11T07:31:25.918Z,99271.51
2018-12-11T07:33:55.143Z,99271.51
2018-12-11T07:36:24.345Z,99259.56
2018-12-11T07:38:53.290Z,99263.37
2018-12-11T07:41:22.121Z,99253.27
2018-12-11T07:43:50.968Z,99246.91
2018-12-11T07:46:20.004Z,99259.10
2018-12-11T07:48:48.849Z,99262.59
2018-12-11T07:51:17.677Z,99257.61
2018-12-11T07:53:46.522Z,99255.94
2018-12-11T07:56:15.486Z,99276.38
2018-12-11T07:58:44.430Z,99274.09
2018-12-11T08:01:13.399Z,99274.72
2018-12-11T08:03:42.244Z,99276.59
2018-12-11T08:06:11.161Z,99278.84
2018-12-11T08:08:40.108Z,99284.44
2018-12-11T08:11:09.029Z,99282.27
2018-12-11T08:13:37.963Z,99280.30
2018-12-11T08:16:06.776Z,99289.48
2018-12-11T08:18:35.776Z,99281.41
2018-12-11T08:21:04.601Z,99285.63
2018-12-11T08:23:33.524Z,99286.73
2018-12-11T08:26:02.490Z,99294.17
2018-12-11T08:28:31.523Z,99292.56
2018-12-11T08:31:00.539Z,99295.29
2018-12-11T08:33:29.541Z,99300.21
2018-12-11T08:35:58.341Z,99289.42
2018-12-11T08:38:27.362Z,99293.03
2018-12-11T08:40:56.289Z,99293.58
2018-12-11T08:43:25.226Z,99288.70
2018-12-11T08:45:54.148Z,99282.00
2018-12-11T08:48:23.166Z,99288.47
2018-12-11T08:50:52.253Z,99283.30
2018-12-11T08:53:21.241Z,99282.20
2018-12-11T08:55:50.169Z,99278.27
2018-12-11T08:58:19.098Z,99274.47
2018-12-11T09:00:48.071Z,99276.19
2018-12-11T09:03:16.910Z,99274.93
2018-12-11T09:05:46.010Z,99280.37
2018-12-11T09:08:15.503Z,99276.31
2018-12-11T09:10:44.380Z,99274.08
2018-12-11T09:13:13.381Z,99277.64
2018-12-11T09:15:42.409Z,99265.41
2018-12-11T09:18:11.209Z,99262.27
2018-12-11T09:20:40.025Z,99266.36
2018-12-11T09:23:08.928Z,99261.33
2018-12-11T09:25:38.046Z,99256.02
2018-12-11T09:28:10.989Z,99261.90
2018-12-11T09:30:38.061Z,99269.91
2018-12-11T09:33:07.040Z,99270.41
2018-12-11T09:35:36.137Z,99261.13
2018-12-11T09:38:05.005Z,99265.05
2018-12-11T09:40:33.924Z,99275.39
2018-12-11T09:43:02.924Z,99264.52
2018-12-11T09:45:31.864Z,99272.31
2018-12-11T09:48:00.863Z,99270.64
2018-12-11T09:50:29.841Z,99275.75
2018-12-11T09:52:58.766Z,99273.95
2018-12-11T09:55:27.669Z,99266.56
2018-12-11T09:57:56.544Z,99277.02
2018-12-11T10:00:27.365Z,99280.65
2018-12-11T10:02:56.585Z,99270.97
2018-12-11T10:05:25.658Z,99268.59
2018-12-11T10:07:54.597Z,99269.70
2018-12-11T10:10:23.516Z,99267.82
2018-12-11T10:12:52.429Z,99269.00
2018-12-11T10:15:21.279Z,99258.54
2018-12-11T10:17:50.296Z,99260.67
2018-12-11T10:20:19.521Z,99253.31
2018-12-11T10:22:48.589Z,99254.99
2018-12-11T10:25:17.529Z,99255.64
2018-12-11T10:27:46.466Z,99255.30
2018-12-11T10:30:15.293Z,99254.93
2018-12-11T10:32:49.641Z,99256.09
2018-12-11T10:35:18.581Z,99257.62
2018-12-11T10:37:47.619Z,99244.52
2018-12-11T10:40:16.496Z,99236.13
2018-12-11T10:42:45.292Z,99236.44
2018-12-11T10:45:14.981Z,99242.81
2018-12-11T10:47:43.865Z,99232.02
2018-12-11T10:50:12.796Z,99224.84
2018-12-11T10:52:42.209Z,99230.30
2018-12-11T10:55:11.117Z,99234.19
2018-12-11T10:57:40.230Z,99240.19
2018-12-11T11:00:13.889Z,99234.72
2018-12-11T11:02:48.390Z,99229.78
2018-12-11T11:05:17.365Z,99231.03
2018-12-11T11:07:46.598Z,99241.05
2018-12-11T11:10:15.541Z,99235.89
2018-12-11T11:12:44.836Z,99227.37
2018-12-11T11:15:13.876Z,99236.48
2018-12-11T11:17:42.891Z,99231.64
2018-12-11T11:20:11.960Z,99238.00
2018-12-11T11:22:40.868Z,99236.67
2018-12-11T11:25:09.926Z,99241.05
2018-12-11T11:27:38.902Z,99240.27
2018-12-11T11:30:07.998Z,99237.43
2018-12-11T11:32:37.021Z,99230.36
2018-12-11T11:35:06.741Z,99237.27
2018-12-11T11:37:35.684Z,99228.91
2018-12-11T11:40:05.446Z,99221.89
2018-12-11T11:42:34.549Z,99231.24
2018-12-11T11:45:04.230Z,99224.64
2018-12-11T11:47:33.345Z,99239.05
2018-12-11T11:50:02.338Z,99231.37
2018-12-11T11:52:31.429Z,99234.74
2018-12-11T11:55:00.330Z,99237.63
2018-12-11T11:57:29.770Z,99233.41
2018-12-11T11:59:58.993Z,99230.04
2018-12-11T12:02:33.330Z,99238.33
2018-12-11T12:04:59.065Z,99250.86
2018-12-11T12:07:27.958Z,99244.23
2018-12-11T12:09:56.886Z,99249.55
2018-12-11T12:12:25.836Z,99253.55
2018-12-11T12:14:54.749Z,99259.38
2018-12-11T12:17:23.585Z,99256.09
2018-12-11T12:19:52.534Z,99258.71
2018-12-11T12:22:21.511Z,99251.88
2018-12-11T12:24:50.685Z,99255.80
2018-12-11T12:27:19.584Z,99253.37
2018-12-11T12:29:48.648Z,99257.16
2018-12-11T12:32:17.573Z,99254.22
2018-12-11T12:34:46.477Z,99264.57
2018-12-11T12:37:15.549Z,99257.30
2018-12-11T12:39:44.452Z,99274.98
2018-12-11T12:42:13.421Z,99271.80
2018-12-11T12:44:42.737Z,99278.48
2018-12-11T12:47:11.720Z,99268.13
2018-12-11T12:49:40.658Z,99279.02
2018-12-11T12:52:09.644Z,99274.67
2018-12-11T12:54:38.643Z,99279.63
2018-12-11T12:57:07.537Z,99280.20
2018-12-11T12:59:36.599Z,99282.53
2018-12-11T13:02:05.505Z,99282.86
2018-12-11T13:04:34.417Z,99278.48
2018-12-11T13:07:03.353Z,99284.57
2018-12-11T13:09:32.217Z,99292.89
2018-12-11T13:12:01.448Z,99295.83
2018-12-11T13:14:30.566Z,99289.04
2018-12-11T13:16:59.619Z,99291.20
2018-12-11T13:19:28.498Z,99288.63
2018-12-11T13:21:57.409Z,99289.62
2018-12-11T13:24:26.370Z,99304.30
2018-12-11T13:26:55.489Z,99291.63
2018-12-11T13:29:24.399Z,99297.51
2018-12-11T13:31:53.687Z,99300.00
2018-12-11T13:34:22.741Z,99297.39
2018-12-11T13:36:52.435Z,99305.03
2018-12-11T13:39:21.369Z,99306.91
2018-12-11T13:41:50.257Z,99306.74
2018-12-11T13:44:19.489Z,99311.16
2018-12-11T13:46:48.584Z,99322.04
2018-12-11T13:49:17.588Z,99320.85
2018-12-11T13:51:46.677Z,99325.63
2018-12-11T13:54:15.998Z,99330.73
2018-12-11T13:56:45.345Z,99329.02
2018-12-11T13:59:14.365Z,99329.66
2018-12-11T14:01:43.925Z,99329.83
2018-12-11T14:04:13.066Z,99329.63
2018-12-11T14:06:42.772Z,99336.50
2018-12-11T14:09:17.242Z,99326.08
2018-12-11T14:11:46.563Z,99323.98
2018-12-11T14:14:15.845Z,99319.40
2018-12-11T14:16:45.212Z,99317.51
2018-12-11T14:19:14.233Z,99323.14
2018-12-11T14:21:43.046Z,99320.65
2018-12-11T14:24:12.062Z,99324.36
2018-12-11T14:26:41.250Z,99326.59
2018-12-11T14:29:10.381Z,99326.11
2018-12-11T14:31:39.598Z,99322.13
2018-12-11T14:34:08.706Z,99323.95
2018-12-11T14:36:37.634Z,99323.55
2018-12-11T14:39:07.857Z,99332.41
2018-12-11T14:41:36.785Z,99335.48
2018-12-11T14:44:05.698Z,99333.34
2018-12-11T14:46:34.772Z,99336.59
2018-12-11T14:49:04.261Z,99338.08
2018-12-11T14:51:33.347Z,99339.55
2018-12-11T14:54:03.085Z,99338.83
2018-12-11T14:56:32.188Z,99337.27
2018-12-11T14:59:01.422Z,99343.80
2018-12-11T15:01:31.161Z,99346.83
2018-12-11T15:04:00.194Z,99347.16
2018-12-11T15:06:29.034Z,99350.22
2018-12-11T15:09:02.685Z,99349.33
2018-12-11T15:11:31.922Z,99349.44
2018-12-11T15:14:01.410Z,99354.69
2018-12-11T15:16:30.966Z,99354.02
2018-12-11T15:19:02.870Z,99364.70
2018-12-11T15:21:32.165Z,99366.64
2018-12-11T15:24:01.313Z,99360.47
2018-12-11T15:26:30.350Z,99362.34
2018-12-11T15:28:59.258Z,99367.64
2018-12-11T15:31:28.179Z,99361.92
2018-12-11T15:33:57.082Z,99370.05
2018-12-11T15:36:27.148Z,99379.28
2018-12-11T15:38:56.756Z,99366.97
2018-12-11T15:41:25.732Z,99372.52
2018-12-11T15:43:54.743Z,99381.47
2018-12-11T15:46:24.125Z,99380.34
2018-12-11T15:48:53.220Z,99381.73
2018-12-11T15:51:22.178Z,99379.58
2018-12-11T15:53:51.472Z,99391.16
2018-12-11T15:56:20.480Z,99381.84
2018-12-11T15:58:49.415Z,99384.08
2018-12-11T16:01:18.312Z,99391.95
2018-12-11T16:03:47.385Z,99390.27
2018-12-11T16:06:16.390Z,99389.66
2018-12-11T16:08:45.675Z,99389.97
2018-12-11T16:11:14.667Z,99393.95
2018-12-11T16:13:43.605Z,99401.00
2018-12-11T16:16:12.617Z,99397.36
2018-12-11T16:18:41.760Z,99393.89
2018-12-11T16:21:10.981Z,99401.72
2018-12-11T16:23:39.925Z,99404.13
2018-12-11T16:26:08.961Z,99409.34
2018-12-11T16:28:37.868Z,99411.96
2018-12-11T16:31:06.760Z,99411.65
2018-12-11T16:33:35.756Z,99418.25
2018-12-11T16:36:04.903Z,99421.65
2018-12-11T16:38:33.915Z,99415.02
2018-12-11T16:41:03.164Z,99425.05
2018-12-11T16:43:32.170Z,99427.83
2018-12-11T16:46:01.083Z,99428.00
2018-12-11T16:48:29.987Z,99433.12
2018-12-11T16:50:59.092Z,99438.55
2018-12-11T16:53:28.113Z,99427.55
2018-12-11T16:55:57.604Z,99427.04
2018-12-11T16:58:28.229Z,99429.30
2018-12-11T17:00:58.284Z,99430.61
2018-12-11T17:03:27.653Z,99432.81
2018-12-11T17:05:57.047Z,99437.55
2018-12-11T17:08:26.478Z,99440.34
2018-12-11T17:10:56.223Z,99445.39
2018-12-11T17:13:25.356Z,99434.77
2018-12-11T17:15:54.178Z,99433.39
2018-12-11T17:18:22.977Z,99439.05
2018-12-11T17:20:52.441Z,99443.07
2018-12-11T17:23:21.548Z,99447.95
2018-12-11T17:25:50.565Z,99446.42
2018-12-11T17:28:19.477Z,99449.89
2018-12-11T17:30:48.393Z,99449.38
2018-12-11T17:33:17.400Z,99455.21
2018-12-11T17:35:46.405Z,99453.65
2018-12-11T17:38:15.421Z,99452.31
2018-12-11T17:40:44.377Z,99457.79
2018-12-11T17:43:13.566Z,99463.10
2018-12-11T17:45:42.619Z,99460.33
2018-12-11T17:48:12.318Z,99464.81
2018-12-11T17:50:41.573Z,99463.77
2018-12-11T17:53:10.764Z,99469.08
2018-12-11T17:55:39.600Z,99469.63
2018-12-11T17:58:08.541Z,99469.18
2018-12-11T18:00:38.003Z,99466.06
2018-12-11T18:03:06.913Z,99472.16
2018-12-11T18:05:35.846Z,99477.43
2018-12-11T18:08:05.284Z,99476.52
2018-12-11T18:10:34.192Z,99489.66
2018-12-11T18:13:03.571Z,99482.00
2018-12-11T18:15:32.887Z,99484.81
2018-12-11T18:18:02.102Z,99491.96
2018-12-11T18:20:31.214Z,99492.85
2018-12-11T18:23:00.018Z,99492.88
2018-12-11T18:25:29.043Z,99498.69
2018-12-11T18:27:57.938Z,99506.19
2018-12-11T18:30:26.866Z,99508.03
2018-12-11T18:32:55.774Z,99505.77
2018-12-11T18:35:25.031Z,99518.72
2018-12-11T18:37:53.956Z,99515.10
2018-12-11T18:40:23.586Z,99519.16
2018-12-11T18:42:52.412Z,99514.80
2018-12-11T18:45:21.237Z,99521.03
2018-12-11T18:47:50.457Z,99522.55
2018-12-11T18:50:21.560Z,99519.08
2018-12-11T18:52:50.285Z,99518.22
2018-12-11T18:55:19.204Z,99517.84
2018-12-11T18:57:48.107Z,99514.63
2018-12-11T19:00:17.244Z,99507.46
2018-12-11T19:02:46.353Z,99508.88
2018-12-11T19:05:15.573Z,99503.88
2018-12-11T19:07:44.469Z,99515.79
2018-12-11T19:10:13.396Z,99517.62
2018-12-11T19:12:42.301Z,99515.94
2018-12-11T19:15:11.392Z,99512.25
2018-12-11T19:17:40.500Z,99520.20
2018-12-11T19:20:09.687Z,99523.62
2018-12-11T19:22:38.798Z,99523.19
2018-12-11T19:25:12.012Z,99523.92
2018-12-11T19:27:40.906Z,99526.41
2018-12-11T19:30:09.993Z,99525.80
2018-12-11T19:32:38.950Z,99527.77
2018-12-11T19:35:08.047Z,99530.23
2018-12-11T19:37:37.240Z,99525.69
2018-12-11T19:40:08.577Z,99528.85
2018-12-11T19:42:38.791Z,99536.45
2018-12-11T19:45:07.847Z,99528.91
2018-12-11T19:47:36.857Z,99534.43
2018-12-11T19:50:06.453Z,99537.62
2018-12-11T19:52:39.677Z,99537.20
2018-12-11T19:55:06.589Z,99537.48
2018-12-11T19:57:35.584Z,99536.76
2018-12-11T20:00:05.821Z,99540.09
2018-12-11T20:02:34.704Z,99543.11
2018-12-11T20:05:04.282Z,99537.06
2018-12-11T20:07:34.120Z,99538.39
2018-12-11T20:10:24.638Z,99535.17
2018-12-11T20:12:53.641Z,99538.64
2018-12-11T20:15:22.666Z,99545.74
2018-12-11T20:17:51.706Z,99544.50
2018-12-11T20:20:26.644Z,99543.05
2018-12-11T20:22:55.549Z,99538.70
2018-12-11T20:25:24.626Z,99535.37
2018-12-11T20:27:53.567Z,99534.48
2018-12-11T20:30:22.485Z,99535.67
2018-12-11T20:32:52.014Z,99538.72
2018-12-11T20:35:20.942Z,99542.41
2018-12-11T20:37:50.075Z,99539.00
2018-12-11T20:40:20.310Z,99536.84
2018-12-11T20:42:49.362Z,99539.06
2018-12-11T20:45:19.318Z,99543.13
2018-12-11T20:47:48.351Z,99545.02
2018-12-11T20:50:17.544Z,99550.06
2018-12-11T20:52:47.076Z,99553.11
2018-12-11T20:55:16.025Z,99549.20
2018-12-11T20:57:45.178Z,99554.91
2018-12-11T21:00:14.235Z,99556.02
2018-12-11T21:02:45.253Z,99551.05
2018-12-11T21:05:14.363Z,99557.69
2018-12-11T21:07:43.557Z,99561.02
2018-12-11T21:10:12.678Z,99568.97
2018-12-11T21:12:41.490Z,99580.33
2018-12-11T21:15:10.522Z,99579.67
2018-12-11T21:17:39.583Z,99581.03
2018-12-11T21:20:09.326Z,99581.99
2018-12-11T21:22:38.578Z,99584.67
2018-12-11T21:25:07.549Z,99576.19
2018-12-11T21:27:36.744Z,99586.32
2018-12-11T21:30:07.645Z,99586.97
2018-12-11T21:32:36.541Z,99590.80
2018-12-11T21:35:07.386Z,99592.31
2018-12-11T21:37:36.323Z,99596.37
2018-12-11T21:40:06.613Z,99592.42
2018-12-11T21:42:35.617Z,99592.73
2018-12-11T21:45:05.774Z,99598.91
2018-12-11T21:47:34.689Z,99600.08
2018-12-11T21:50:05.201Z,99595.84
2018-12-11T21:52:34.301Z,99594.11
2018-12-11T21:55:03.601Z,99589.32
2018-12-11T21:57:33.937Z,99591.44
2018-12-11T22:00:03.942Z,99596.17
2018-12-11T22:02:33.080Z,99591.50
2018-12-11T22:05:02.003Z,99584.29
2018-12-11T22:07:30.985Z,99585.54
2018-12-11T22:09:59.979Z,99578.35
2018-12-11T22:12:29.241Z,99575.14
2018-12-11T22:14:58.145Z,99575.56
2018-12-11T22:17:26.981Z,99573.69
2018-12-11T22:19:56.530Z,99567.17
2018-12-11T22:22:25.527Z,99569.86
2018-12-11T22:24:58.663Z,99572.39
2018-12-11T22:27:32.597Z,99565.87
2018-12-11T22:30:05.742Z,99572.61
2018-12-11T22:32:40.235Z,99571.42
2018-12-11T22:35:17.011Z,99559.52
2018-12-11T22:38:24.374Z,99571.52
2018-12-11T22:40:59.662Z,99566.36
2018-12-11T22:43:34.774Z,99562.25
2018-12-11T22:46:04.033Z,99565.38
2018-12-11T22:48:33.209Z,99561.39
2018-12-11T22:51:06.903Z,99562.69
2018-12-11T22:53:37.315Z,99560.34
2018-12-11T22:56:06.393Z,99557.04
2018-12-11T22:58:35.395Z,99550.11
2018-12-11T23:01:04.481Z,99551.17
2018-12-11T23:03:33.732Z,99561.70
2018-12-11T23:06:02.809Z,99549.25
2018-12-11T23:08:31.725Z,99549.28
2018-12-11T23:11:00.622Z,99556.00
2018-12-11T23:13:29.507Z,99555.21
2018-12-11T23:15:58.487Z,99546.31
2018-12-11T23:18:27.932Z,99548.57
2018-12-11T23:20:56.840Z,99548.46
2018-12-11T23:23:25.956Z,99553.98
2018-12-11T23:25:55.037Z,99557.08
2018-12-11T23:28:23.966Z,99546.42
2018-12-11T23:30:52.997Z,99550.53
2018-12-11T23:33:21.784Z,99554.48
2018-12-11T23:35:50.672Z,99552.33
2018-12-11T23:38:19.560Z,99552.74
2018-12-11T23:40:48.373Z,99548.72
2018-12-11T23:43:17.369Z,99553.31
2018-12-11T23:45:46.306Z,99552.74
2018-12-11T23:48:15.217Z,99554.93
2018-12-11T23:50:44.118Z,99565.02
2018-12-11T23:53:13.000Z,99559.20
2018-12-11T23:55:41.778Z,99563.73
2018-12-11T23:58:10.617Z,99565.70
